createdAt,value
2023-01-17T00:02:24.053Z,147.95
2023-01-17T00:04:52.345Z,122.47
2023-01-17T00:07:22.904Z,122.70
2023-01-17T00:09:51.058Z,161.45
2023-01-17T00:12:20.958Z,152.65
2023-01-17T00:14:49.470Z,141.20
2023-01-17T00:17:17.826Z,158.00
2023-01-17T00:19:46.061Z,136.95
2023-01-17T00:22:29.367Z,130.93
2023-01-17T00:24:57.606Z,133.50
2023-01-17T00:27:25.921Z,105.70
2023-01-17T00:29:54.128Z,118.25
2023-01-17T00:32:22.286Z,161.82
2023-01-17T00:34:50.620Z,145.35
2023-01-17T00:37:18.717Z,160.75
2023-01-17T00:39:47.043Z,143.23
2023-01-17T00:42:15.421Z,159.10
2023-01-17T00:44:44.196Z,168.20
2023-01-17T00:47:12.441Z,157.23
2023-01-17T00:49:40.771Z,147.27
2023-01-17T00:52:08.927Z,155.07
2023-01-17T00:54:37.303Z,175.95
2023-01-17T00:57:07.207Z,177.95
2023-01-17T00:59:35.588Z,163.20
2023-01-17T01:02:04.249Z,165.15
2023-01-17T01:04:32.649Z,158.77
2023-01-17T01:07:00.996Z,151.68
2023-01-17T01:09:29.225Z,168.63
2023-01-17T01:11:57.636Z,158.63
2023-01-17T01:14:25.833Z,152.68
2023-01-17T01:16:54.067Z,169.13
2023-01-17T01:19:22.310Z,138.68
2023-01-17T01:21:51.534Z,151.95
2023-01-17T01:24:19.823Z,136.35
2023-01-17T01:26:48.096Z,163.35
2023-01-17T01:29:16.255Z,159.02
2023-01-17T01:31:44.517Z,158.75
2023-01-17T01:34:12.967Z,190.35
2023-01-17T01:36:41.193Z,144.43
2023-01-17T01:39:09.370Z,157.90
2023-01-17T01:41:37.653Z,143.40
2023-01-17T01:44:26.085Z,139.88
2023-01-17T01:46:54.491Z,165.40
2023-01-17T01:49:26.172Z,150.00
2023-01-17T01:52:01.988Z,156.27
2023-01-17T01:55:00.749Z,152.93
2023-01-17T01:57:35.232Z,172.60
2023-01-17T02:00:08.355Z,143.93
2023-01-17T02:02:41.579Z,172.48
2023-01-17T02:05:11.610Z,160.65
2023-01-17T02:07:55.134Z,161.73
2023-01-17T02:10:23.358Z,168.00
2023-01-17T02:12:53.810Z,168.77
2023-01-17T02:15:26.662Z,163.98
2023-01-17T02:18:17.326Z,160.88
2023-01-17T02:21:03.788Z,167.27
2023-01-17T02:23:35.221Z,160.88
2023-01-17T02:26:25.386Z,147.15
2023-01-17T02:28:56.666Z,161.70
2023-01-17T02:31:34.441Z,161.47
2023-01-17T02:34:16.114Z,167.20
2023-01-17T02:36:52.433Z,168.60
2023-01-17T02:39:28.964Z,163.07
2023-01-17T02:42:03.424Z,171.43
2023-01-17T02:44:40.220Z,167.80
2023-01-17T02:47:28.253Z,198.73
2023-01-17T02:50:07.098Z,185.15
2023-01-17T02:53:05.528Z,241.93
2023-01-17T02:55:57.878Z,233.27
2023-01-17T02:58:50.279Z,221.30
2023-01-17T03:01:21.624Z,196.75
2023-01-17T03:04:00.438Z,209.82
2023-01-17T03:06:59.184Z,158.93
2023-01-17T03:09:28.729Z,175.35
2023-01-17T03:11:58.342Z,160.32
2023-01-17T03:14:26.772Z,149.35
2023-01-17T03:16:54.851Z,147.13
2023-01-17T03:19:23.134Z,132.98
2023-01-17T03:21:51.288Z,140.60
2023-01-17T03:24:19.521Z,162.65
2023-01-17T03:26:47.889Z,145.35
2023-01-17T03:29:16.961Z,153.88
2023-01-17T03:31:45.337Z,138.68
2023-01-17T03:34:14.263Z,114.28
2023-01-17T03:36:42.607Z,124.30
2023-01-17T03:39:10.687Z,109.45
2023-01-17T03:41:39.084Z,113.68
2023-01-17T03:44:07.229Z,124.35
2023-01-17T03:46:35.555Z,125.00
2023-01-17T03:49:03.901Z,103.57
2023-01-17T03:51:32.006Z,95.50
2023-01-17T03:54:00.240Z,109.63
2023-01-17T03:56:28.469Z,92.18
2023-01-17T03:58:56.967Z,100.70
2023-01-17T04:01:25.975Z,81.63
2023-01-17T04:03:54.217Z,89.15
2023-01-17T04:06:22.505Z,90.03
2023-01-17T04:08:50.644Z,93.15
2023-01-17T04:11:18.943Z,81.53
2023-01-17T04:13:47.179Z,95.57
2023-01-17T04:16:18.083Z,97.40
2023-01-17T04:18:46.536Z,90.95
2023-01-17T04:21:14.849Z,98.35
2023-01-17T04:23:43.089Z,93.10
2023-01-17T04:26:13.264Z,88.05
2023-01-17T04:28:41.538Z,84.82
2023-01-17T04:31:17.435Z,87.32
2023-01-17T04:33:45.815Z,91.53
2023-01-17T04:36:14.071Z,62.35
2023-01-17T04:38:42.263Z,86.47
2023-01-17T04:41:10.450Z,68.93
2023-01-17T04:43:38.690Z,70.63
2023-01-17T04:46:07.192Z,89.57
2023-01-17T04:48:35.366Z,88.40
2023-01-17T04:51:05.106Z,87.90
2023-01-17T04:53:33.495Z,80.60
2023-01-17T04:56:01.731Z,89.22
2023-01-17T04:58:30.355Z,77.07
2023-01-17T05:01:06.336Z,78.43
2023-01-17T05:03:35.477Z,77.63
2023-01-17T05:06:03.814Z,72.60
2023-01-17T05:08:31.994Z,69.93
2023-01-17T05:11:00.323Z,70.47
2023-01-17T05:13:28.535Z,72.80
2023-01-17T05:15:58.744Z,65.50
2023-01-17T05:18:27.009Z,68.03
2023-01-17T05:20:55.341Z,73.18
2023-01-17T05:23:23.559Z,70.18
2023-01-17T05:25:51.644Z,73.05
2023-01-17T05:28:20.097Z,73.65
2023-01-17T05:30:48.333Z,77.40
2023-01-17T05:33:16.535Z,76.03
2023-01-17T05:35:44.754Z,71.78
2023-01-17T05:38:12.924Z,83.80
2023-01-17T05:40:41.201Z,84.22
2023-01-17T05:43:09.710Z,82.07
2023-01-17T05:45:38.045Z,81.78
2023-01-17T05:48:06.576Z,85.30
2023-01-17T05:50:37.221Z,84.50
2023-01-17T05:53:12.275Z,89.70
2023-01-17T05:55:41.543Z,82.07
2023-01-17T05:58:18.290Z,73.22
2023-01-17T06:00:46.819Z,81.10
2023-01-17T06:03:15.442Z,75.38
2023-01-17T06:05:43.791Z,86.45
2023-01-17T06:08:12.231Z,76.57
2023-01-17T06:10:40.915Z,95.30
2023-01-17T06:13:12.338Z,80.57
2023-01-17T06:15:40.738Z,78.10
2023-01-17T06:18:13.858Z,74.50
2023-01-17T06:20:42.699Z,76.20
2023-01-17T06:23:15.251Z,81.75
2023-01-17T06:25:45.524Z,83.80
2023-01-17T06:28:16.255Z,72.15
2023-01-17T06:30:44.842Z,76.60
2023-01-17T06:33:14.415Z,75.20
2023-01-17T06:35:52.913Z,66.68
2023-01-17T06:38:21.525Z,75.55
2023-01-17T06:40:49.741Z,72.07
2023-01-17T06:43:18.082Z,78.10
2023-01-17T06:45:46.304Z,82.40
2023-01-17T06:48:14.709Z,68.07
2023-01-17T06:50:42.989Z,78.50
2023-01-17T06:53:11.256Z,83.70
2023-01-17T06:55:39.824Z,85.72
2023-01-17T06:58:09.274Z,81.65
2023-01-17T07:00:40.344Z,79.65
2023-01-17T07:03:24.215Z,71.78
2023-01-17T07:05:53.503Z,77.30
2023-01-17T07:08:21.832Z,106.30
2023-01-17T07:10:50.287Z,104.28
2023-01-17T07:13:18.442Z,76.53
2023-01-17T07:15:46.774Z,78.45
2023-01-17T07:18:15.174Z,96.47
2023-01-17T07:20:44.298Z,98.00
2023-01-17T07:23:12.803Z,85.45
2023-01-17T07:25:40.954Z,77.07
2023-01-17T07:28:09.450Z,94.75
2023-01-17T07:30:37.635Z,78.57
2023-01-17T07:33:05.856Z,82.05
2023-01-17T07:35:34.179Z,89.15
2023-01-17T07:38:02.503Z,90.03
2023-01-17T07:40:31.176Z,107.97
2023-01-17T07:43:04.366Z,84.10
2023-01-17T07:48:00.442Z,97.95
2023-01-17T07:50:28.656Z,109.97
2023-01-17T07:52:57.013Z,96.47
2023-01-17T07:55:25.307Z,108.70
2023-01-17T07:57:53.933Z,118.40
2023-01-17T08:00:22.695Z,139.35
2023-01-17T08:02:51.014Z,121.57
2023-01-17T08:05:19.259Z,111.75
2023-01-17T08:07:47.467Z,130.85
2023-01-17T08:10:15.939Z,98.75
2023-01-17T08:12:50.853Z,124.97
2023-01-17T08:15:19.834Z,134.88
2023-01-17T08:17:49.513Z,130.25
2023-01-17T08:20:18.023Z,137.88
2023-01-17T08:22:46.699Z,112.28
2023-01-17T08:25:14.995Z,119.90
2023-01-17T08:27:43.363Z,139.48
2023-01-17T08:30:12.001Z,109.95
2023-01-17T08:32:40.281Z,90.28
2023-01-17T08:35:09.692Z,103.90
2023-01-17T08:37:37.948Z,123.85
2023-01-17T08:40:07.617Z,129.75
2023-01-17T08:42:37.209Z,110.55
2023-01-17T08:45:07.845Z,95.10
2023-01-17T08:47:36.501Z,91.22
2023-01-17T08:50:07.114Z,106.35
2023-01-17T08:52:35.613Z,89.10
2023-01-17T08:55:04.758Z,78.45
2023-01-17T08:57:33.550Z,98.95
2023-01-17T09:00:01.863Z,91.88
2023-01-17T09:02:30.187Z,110.60
2023-01-17T09:04:58.275Z,91.75
2023-01-17T09:07:26.448Z,86.75
2023-01-17T09:09:54.844Z,90.72
2023-01-17T09:12:23.050Z,78.40
2023-01-17T09:14:51.405Z,94.07
2023-01-17T09:17:19.569Z,74.20
2023-01-17T09:19:50.538Z,94.18
2023-01-17T09:22:18.920Z,91.78
2023-01-17T09:24:47.052Z,79.60
2023-01-17T09:27:15.366Z,115.57
2023-01-17T09:29:43.545Z,79.82
2023-01-17T09:32:11.763Z,69.13
2023-01-17T09:34:40.155Z,84.82
2023-01-17T09:37:08.333Z,73.50
2023-01-17T09:39:36.637Z,94.07
2023-01-17T09:42:36.375Z,68.85
2023-01-17T09:45:05.464Z,82.93
2023-01-17T09:47:45.529Z,76.55
2023-01-17T09:50:32.372Z,106.05
2023-01-17T09:53:21.079Z,77.25
2023-01-17T09:56:15.224Z,88.88
2023-01-17T09:59:10.954Z,101.40
2023-01-17T10:01:46.725Z,92.15
2023-01-17T10:04:28.685Z,76.03
2023-01-17T10:07:23.116Z,84.32
2023-01-17T10:10:10.755Z,81.18
2023-01-17T10:12:56.872Z,68.25
2023-01-17T10:15:37.706Z,92.50
2023-01-17T10:18:30.738Z,76.32
2023-01-17T10:21:22.259Z,90.13
2023-01-17T10:24:11.702Z,79.57
2023-01-17T10:26:40.224Z,69.13
2023-01-17T10:29:15.686Z,74.00
2023-01-17T10:32:00.340Z,80.72
2023-01-17T10:34:40.661Z,80.07
2023-01-17T10:37:21.664Z,77.65
2023-01-17T10:39:51.300Z,79.82
2023-01-17T10:42:44.366Z,74.18
2023-01-17T10:45:23.112Z,67.38
2023-01-17T10:48:12.064Z,77.88
2023-01-17T10:51:07.294Z,75.68
2023-01-17T10:53:55.739Z,73.47
2023-01-17T10:56:29.007Z,79.90
2023-01-17T10:59:34.759Z,82.03
2023-01-17T11:02:03.374Z,72.22
2023-01-17T11:04:42.810Z,63.45
2023-01-17T11:07:20.055Z,75.13
2023-01-17T11:09:53.323Z,66.55
2023-01-17T11:12:28.405Z,71.82
2023-01-17T11:15:16.544Z,74.30
2023-01-17T11:17:50.792Z,71.80
2023-01-17T11:20:35.632Z,67.65
2023-01-17T11:23:13.321Z,78.90
2023-01-17T11:25:49.734Z,67.45
2023-01-17T11:28:28.711Z,70.63
2023-01-17T11:31:01.025Z,60.20
2023-01-17T11:33:40.206Z,62.25
2023-01-17T11:36:22.514Z,70.50
2023-01-17T11:39:02.512Z,57.10
2023-01-17T11:41:39.489Z,52.42
2023-01-17T11:44:30.595Z,78.32
2023-01-17T11:47:16.025Z,71.55
2023-01-17T11:49:46.743Z,64.97
2023-01-17T11:52:26.907Z,72.80
2023-01-17T11:54:56.413Z,56.30
2023-01-17T11:57:24.896Z,66.20
2023-01-17T12:00:02.295Z,76.40
2023-01-17T12:02:58.178Z,66.65
2023-01-17T12:06:07.976Z,77.53
2023-01-17T12:09:06.524Z,66.10
2023-01-17T12:12:05.223Z,58.47
2023-01-17T12:14:53.722Z,60.30
2023-01-17T12:17:50.758Z,79.65
2023-01-17T12:20:42.861Z,74.88
2023-01-17T12:23:22.910Z,69.20
2023-01-17T12:25:59.411Z,94.85
2023-01-17T12:28:45.446Z,58.08
2023-01-17T12:31:55.185Z,76.88
2023-01-17T12:34:33.394Z,74.70
2023-01-17T12:37:12.555Z,66.97
2023-01-17T12:39:46.428Z,68.13
2023-01-17T12:42:27.692Z,63.35
2023-01-17T12:45:45.205Z,65.27
2023-01-17T12:48:24.487Z,58.05
2023-01-17T12:51:04.809Z,68.60
2023-01-17T12:53:40.115Z,72.78
2023-01-17T12:56:23.983Z,67.70
2023-01-17T12:59:14.378Z,73.45
2023-01-17T13:01:46.819Z,66.93
2023-01-17T13:04:30.428Z,63.53
2023-01-17T13:07:20.519Z,77.13
2023-01-17T13:09:55.462Z,67.32
2023-01-17T13:12:25.706Z,72.95
2023-01-17T13:14:54.337Z,71.70
2023-01-17T13:17:38.273Z,79.30
2023-01-17T13:20:33.404Z,67.18
2023-01-17T13:23:33.974Z,72.60
2023-01-17T13:26:03.879Z,66.00
2023-01-17T13:28:49.799Z,71.93
2023-01-17T13:31:47.194Z,60.40
2023-01-17T13:34:28.438Z,76.03
2023-01-17T13:37:15.127Z,69.60
2023-01-17T13:40:05.765Z,70.45
2023-01-17T13:43:03.025Z,80.43
2023-01-17T13:45:34.811Z,88.05
2023-01-17T13:48:18.442Z,58.08
2023-01-17T13:50:55.146Z,64.47
2023-01-17T13:53:35.371Z,81.80
2023-01-17T13:56:26.852Z,64.75
2023-01-17T13:58:59.145Z,90.10
2023-01-17T14:01:33.538Z,82.78
2023-01-17T14:04:12.450Z,77.60
2023-01-17T14:07:17.337Z,72.32
2023-01-17T14:09:51.774Z,82.03
2023-01-17T14:12:19.944Z,66.32
2023-01-17T14:14:50.967Z,73.63
2023-01-17T14:17:19.113Z,75.30
2023-01-17T14:19:59.540Z,70.38
2023-01-17T14:22:37.216Z,66.63
2023-01-17T14:25:14.639Z,76.60
2023-01-17T14:27:53.235Z,62.17
2023-01-17T14:30:35.786Z,96.68
2023-01-17T14:33:03.940Z,69.95
2023-01-17T14:35:38.136Z,66.97
2023-01-17T14:38:24.067Z,71.97
2023-01-17T14:41:30.577Z,73.20
2023-01-17T14:43:59.279Z,78.40
2023-01-17T14:46:32.920Z,77.40
2023-01-17T14:49:04.586Z,78.50
2023-01-17T14:51:33.851Z,68.93
2023-01-17T14:54:03.954Z,66.22
2023-01-17T14:56:33.050Z,61.55
2023-01-17T14:59:13.255Z,91.70
2023-01-17T15:01:42.726Z,67.60
2023-01-17T15:04:28.428Z,60.40
2023-01-17T15:06:58.761Z,67.70
2023-01-17T15:09:35.192Z,67.13
2023-01-17T15:12:03.752Z,75.60
2023-01-17T15:14:38.694Z,95.07
2023-01-17T15:17:11.542Z,74.80
2023-01-17T15:19:51.944Z,66.97
2023-01-17T15:22:20.909Z,69.50
2023-01-17T15:24:50.434Z,74.22
2023-01-17T15:27:19.274Z,61.03
2023-01-17T15:29:48.486Z,218.65
2023-01-17T15:32:21.328Z,89.25
2023-01-17T15:34:51.497Z,67.25
2023-01-17T15:37:32.063Z,72.25
2023-01-17T15:40:20.995Z,72.03
2023-01-17T15:42:52.317Z,57.72
2023-01-17T15:45:38.370Z,345.58
2023-01-17T15:48:39.183Z,97.80
2023-01-17T15:51:13.954Z,75.65
2023-01-17T15:53:43.938Z,64.32
2023-01-17T15:56:28.620Z,78.38
2023-01-17T15:59:27.853Z,75.82
2023-01-17T16:01:57.688Z,87.38
2023-01-17T16:04:36.595Z,69.60
2023-01-17T16:07:35.075Z,68.97
2023-01-17T16:10:25.262Z,68.88
2023-01-17T16:12:54.673Z,57.95
2023-01-17T16:15:24.071Z,61.97
2023-01-17T16:17:56.258Z,70.57
2023-01-17T16:20:33.477Z,79.10
2023-01-17T16:23:02.025Z,64.13
2023-01-17T16:25:30.471Z,79.82
2023-01-17T16:27:59.408Z,76.40
2023-01-17T16:30:28.433Z,84.65
2023-01-17T16:32:56.783Z,75.88
2023-01-17T16:35:27.567Z,64.07
2023-01-17T16:37:59.930Z,63.58
2023-01-17T16:40:31.482Z,69.43
2023-01-17T16:43:01.015Z,71.20
2023-01-17T16:45:29.323Z,73.68
2023-01-17T16:47:57.577Z,70.88
2023-01-17T16:50:26.408Z,75.10
2023-01-17T16:52:55.623Z,77.93
2023-01-17T16:55:25.584Z,115.15
2023-01-17T16:57:57.413Z,75.57
2023-01-17T17:00:25.973Z,67.97
2023-01-17T17:02:54.926Z,89.13
2023-01-17T17:05:23.338Z,65.47
2023-01-17T17:07:51.903Z,59.30
2023-01-17T17:10:22.374Z,84.85
2023-01-17T17:12:50.760Z,92.00
2023-01-17T17:15:19.141Z,90.40
2023-01-17T17:17:47.296Z,68.30
2023-01-17T17:20:16.629Z,82.45
2023-01-17T17:22:50.175Z,87.93
2023-01-17T17:25:19.250Z,89.35
2023-01-17T17:27:47.647Z,86.95
2023-01-17T17:30:16.075Z,75.38
2023-01-17T17:32:49.534Z,68.05
2023-01-17T17:35:17.953Z,75.30
2023-01-17T17:37:46.321Z,76.03
2023-01-17T17:40:14.512Z,81.45
2023-01-17T17:42:43.830Z,68.95
2023-01-17T17:45:12.372Z,100.32
2023-01-17T17:47:40.545Z,87.35
2023-01-17T17:50:09.639Z,86.03
2023-01-17T17:52:37.823Z,79.15
2023-01-17T17:55:06.615Z,68.65
2023-01-17T17:57:34.979Z,80.47
2023-01-17T18:00:05.026Z,79.05
2023-01-17T18:02:34.521Z,82.47
2023-01-17T18:05:02.724Z,98.93
2023-01-17T18:07:34.380Z,90.15
2023-01-17T18:10:02.579Z,94.97
2023-01-17T18:12:30.834Z,102.82
2023-01-17T18:14:58.948Z,111.25
2023-01-17T18:17:27.164Z,110.68
2023-01-17T18:19:55.572Z,94.50
2023-01-17T18:22:23.791Z,99.10
2023-01-17T18:28:55.824Z,93.30
2023-01-17T18:31:25.114Z,73.63
2023-01-17T18:33:57.096Z,101.70
2023-01-17T18:38:55.946Z,114.40
2023-01-17T18:41:33.085Z,118.45
2023-01-17T18:44:05.399Z,97.85
2023-01-17T18:46:34.558Z,126.40
2023-01-17T18:49:03.621Z,139.52
2023-01-17T18:51:33.812Z,175.13
2023-01-17T18:54:02.817Z,167.75
2023-01-17T18:56:32.972Z,130.75
2023-01-17T18:59:01.759Z,122.07
2023-01-17T19:01:33.719Z,101.50
2023-01-17T19:04:05.270Z,99.07
2023-01-17T19:06:39.436Z,204.85
2023-01-17T19:09:09.413Z,133.57
2023-01-17T19:11:37.838Z,199.98
2023-01-17T19:14:07.419Z,120.75
2023-01-17T19:16:39.579Z,114.05
2023-01-17T19:19:11.753Z,264.27
2023-01-17T19:21:40.066Z,171.60
2023-01-17T19:24:08.894Z,317.73
2023-01-17T19:26:37.983Z,361.48
2023-01-17T19:29:06.306Z,165.32
2023-01-17T19:31:38.675Z,138.13
2023-01-17T19:34:06.944Z,252.07
2023-01-17T19:36:37.531Z,154.98
2023-01-17T19:39:07.969Z,214.57
2023-01-17T19:41:41.210Z,289.20
2023-01-17T19:44:10.894Z,313.15
2023-01-17T19:46:39.368Z,314.50
2023-01-17T19:49:09.590Z,188.18
2023-01-17T19:51:38.301Z,392.38
2023-01-17T19:54:06.536Z,346.38
2023-01-17T19:56:35.080Z,301.58
2023-01-17T19:59:03.591Z,566.17
2023-01-17T20:01:33.948Z,424.92
2023-01-17T20:04:03.525Z,266.73
2023-01-17T20:06:34.679Z,499.58
2023-01-17T20:09:03.995Z,307.33
2023-01-17T20:11:32.282Z,414.58
2023-01-17T20:14:01.026Z,501.35
2023-01-17T20:16:31.512Z,356.52
2023-01-17T20:19:00.843Z,320.17
2023-01-17T20:21:30.510Z,392.60
2023-01-17T20:24:00.444Z,361.90
2023-01-17T20:26:30.988Z,376.02
2023-01-17T20:28:59.505Z,414.60
2023-01-17T20:31:28.159Z,431.23
2023-01-17T20:33:57.191Z,398.38
2023-01-17T20:36:27.116Z,326.17
2023-01-17T20:38:55.740Z,291.60
2023-01-17T20:41:26.368Z,446.88
2023-01-17T20:43:56.815Z,313.63
2023-01-17T20:46:27.549Z,447.08
2023-01-17T20:48:57.896Z,339.63
2023-01-17T20:51:28.578Z,283.67
2023-01-17T20:53:59.719Z,218.20
2023-01-17T20:56:28.371Z,191.20
2023-01-17T20:58:56.943Z,156.40
2023-01-17T21:01:25.383Z,257.90
2023-01-17T21:03:54.173Z,224.85
2023-01-17T21:06:23.629Z,224.27
2023-01-17T21:08:52.730Z,305.23
2023-01-17T21:11:24.219Z,329.80
2023-01-17T21:13:52.864Z,406.00
2023-01-17T21:16:22.541Z,393.30
2023-01-17T21:18:52.036Z,487.88
2023-01-17T21:21:23.036Z,494.83
2023-01-17T21:23:54.319Z,491.17
2023-01-17T21:26:23.856Z,428.83
2023-01-17T21:28:53.099Z,343.05
2023-01-17T21:31:30.510Z,336.70
2023-01-17T21:34:00.208Z,463.40
2023-01-17T21:36:47.642Z,504.23
2023-01-17T21:39:19.418Z,529.47
2023-01-17T21:41:49.223Z,615.35
2023-01-17T21:44:23.037Z,533.17
2023-01-17T21:46:52.999Z,529.55
2023-01-17T21:49:23.578Z,615.22
2023-01-17T21:51:51.899Z,500.48
2023-01-17T21:54:25.260Z,432.10
2023-01-17T21:56:53.623Z,380.00
2023-01-17T21:59:21.767Z,244.02
2023-01-17T22:01:50.313Z,258.98
2023-01-17T22:04:19.147Z,246.18
2023-01-17T22:06:47.649Z,244.45
2023-01-17T22:09:15.959Z,212.27
2023-01-17T22:11:44.195Z,215.07
2023-01-17T22:14:12.550Z,158.95
2023-01-17T22:16:40.842Z,124.00
2023-01-17T22:19:09.199Z,104.75
2023-01-17T22:21:37.489Z,183.75
2023-01-17T22:24:06.319Z,222.77
2023-01-17T22:26:34.546Z,331.02
2023-01-17T22:29:03.192Z,311.52
2023-01-17T22:31:32.058Z,363.13
2023-01-17T22:34:03.146Z,221.13
2023-01-17T22:36:35.354Z,210.38
2023-01-17T22:39:03.812Z,299.05
2023-01-17T22:41:32.307Z,245.45
2023-01-17T22:44:02.195Z,321.90
2023-01-17T22:46:32.941Z,299.63
2023-01-17T22:49:01.170Z,171.65
2023-01-17T22:51:29.548Z,144.70
2023-01-17T22:53:59.930Z,114.10
2023-01-17T22:56:33.622Z,113.60
2023-01-17T22:59:02.412Z,222.85
2023-01-17T23:01:32.736Z,153.25
2023-01-17T23:04:04.363Z,130.38
2023-01-17T23:06:34.992Z,190.68
2023-01-17T23:09:13.695Z,145.77
2023-01-17T23:11:50.330Z,125.32
2023-01-17T23:14:23.510Z,121.68
2023-01-17T23:16:54.149Z,106.57
2023-01-17T23:19:22.506Z,91.95
2023-01-17T23:21:59.212Z,201.10
2023-01-17T23:24:27.411Z,493.38
2023-01-17T23:26:55.683Z,587.13
2023-01-17T23:29:24.156Z,518.55
2023-01-17T23:31:52.207Z,456.40
2023-01-17T23:34:21.729Z,381.50
2023-01-17T23:36:50.101Z,422.42
2023-01-17T23:39:18.292Z,354.55
2023-01-17T23:41:46.455Z,253.05
2023-01-17T23:44:14.772Z,359.75
2023-01-17T23:46:42.985Z,290.98
2023-01-17T23:49:11.162Z,213.95
2023-01-17T23:51:39.321Z,185.57
2023-01-17T23:54:07.490Z,163.23
2023-01-17T23:56:37.417Z,137.73
2023-01-17T23:59:05.689Z,118.00
